首页
METAR-TAF:

METAR-TAF

机场 :

珀斯機場

珀斯, 澳大利亚

纬度: 31-56S, 经度: 115-57E, 海拔: 20米

当前天气观测

该预报发布于23分钟前的08:40 UTC
风速10节,风向西转西南,有时为25节阵风
温度 13°C
湿度 82%
气压 1010 hPa
能见度10公里或以上
少量云层高于1500英尺
散云层高于3000英尺
多云层高于6000英尺
多云层高于4500英尺
小阵雨, 小阵雨

METAR: YPPH 270840Z 25015G25KT 9999 -SHRA FEW015 SCT030 BKN060 13/10 Q1010 FM0900 24010KT 9999 -SHRA BKN045 INTER 0840/1140 27025G40KT 2000 TSRAGS SCT010 FEW040CB

时间: 17:03 (09:03 UTC)

预报

该预报发布于3小时和28分钟前的05:35 UTC
预报有效从27日的 06点(UTC)到 28日的 12点(UTC)
风速15节,风向西,有时为25节阵风
能见度10公里或以上
多云层高于4500英尺
小阵雨
从 27日的 0900点(UTC)
风速10节,风向西转西南
能见度10公里或以上
多云层高于4500英尺
小阵雨
从 27日的 1800点(UTC)
风速6节,风向
能见度10公里或以上
多云层高于4500英尺
小阵雨
从 28日的 0200点(UTC)
风速20节,风向西转西南,有时为30节阵风
能見度: 4000
散云层高于4500英尺
散云层高于1000英尺
少量云层高于4000英尺, 积雨云.
散云层高于1500英尺
多云层高于4000英尺
雷暴, 雨, 阵雨, 小冰雹或雪球
几率 30%
在之间 IN和TE点(UTC)
风速25节,风向西转西南,有时为40节阵风
能見度: 2000
散云层高于1200英尺
少量云层高于4500英尺, 积雨云.
雷暴, 雨, 小冰雹或雪球

TAF: YPPH 270535Z 2706/2812 28015G25KT 9999 -SHRA BKN045 FM270900 24010KT 9999 -SHRA BKN045 FM271800 19006KT 9999 -SHRA BKN045 FM280200 19008KT 9999 SCT045 INTER 2706/2709 28025G45KT 2000 TSRA SCT010 FEW040CB INTER 2709/2724 25020G30KT 4000 SHRAGS SCT015 BKN040 PROB30 INTER 2709/2724 25025G40KT 2000 TSRAGS SCT012 FEW045CB

超过4000个机场的气象观测和天气预报(METAR&TAF报告)。

可查询的气象台以黄色和红色小点在地图上表示。

将鼠标移到小点上方,可查看气象台名称。

然后点击查看天气观测和预报。

如需切换地图:点击带黑十字的绿色按钮放大地图;点击带横线的绿色按钮缩小地图;或者点击绿色箭头查看邻近地区的地图。


METAR-TAF: